Time;durP1;ratioP1;P1;durP2;ratioP2;P2;SDS_P1;SDS_P2;PMS_P1;PMS_P2;Temp;Humidity;BMP_temperature;BMP_pressure;BME280_temperature;BME280_humidity;BME280_pressure;Samples;Min_cycle;Max_cycle;Signal;HPM_P1;HPM_P2
2022/08/10 00:00:19;;;;;;;;;;;21.80;63.20;;;;;;5022823;28;19917;-66
2022/08/10 00:02:14;;;;;;;;;;;21.70;63.30;;;;;;5022591;28;19966;-65
2022/08/10 00:04:39;;;;;;;;;;;21.70;63.60;;;;;;5022725;28;19930;-65
2022/08/10 00:07:05;;;;;;;;;;;21.70;63.60;;;;;;5033482;28;19921;-66
2022/08/10 00:09:30;;;;;;;;;;;21.70;63.60;;;;;;5036546;28;19969;-66
2022/08/10 00:11:56;;;;;;;;;;;21.60;63.70;;;;;;5040732;28;19909;-66
2022/08/10 00:14:21;;;;;;;;;;;21.60;63.80;;;;;;5038463;28;20471;-66
2022/08/10 00:16:47;;;;;;;;;;;21.60;64.00;;;;;;5022136;28;20008;-66
2022/08/10 00:19:13;;;;;;;;;;;21.50;64.10;;;;;;5021525;28;19955;-66
2022/08/10 00:21:39;;;;;;;;;;;21.50;64.00;;;;;;5021532;28;19913;-66
2022/08/10 00:24:04;;;;;;;;;;;21.50;64.00;;;;;;5021980;28;19920;-66
2022/08/10 00:26:30;;;;;;;;;;;21.50;64.10;;;;;;5020769;28;19921;-66
2022/08/10 00:28:55;;;;;;;;;;;21.40;64.30;;;;;;5022099;28;20350;-66
2022/08/10 00:31:21;;;;;;;;;;;21.40;64.50;;;;;;5021662;28;19916;-66
2022/08/10 00:33:46;;;;;;;;;;;21.40;64.50;;;;;;5022079;28;19940;-66
2022/08/10 00:36:12;;;;;;;;;;;21.30;64.90;;;;;;5021875;28;19913;-65
2022/08/10 00:38:38;;;;;;;;;;;21.30;64.50;;;;;;5021515;28;20374;-66
2022/08/10 00:41:03;;;;;;;;;;;21.30;64.50;;;;;;5022111;28;20324;-66
2022/08/10 00:43:29;;;;;;;;;;;21.30;64.80;;;;;;5021653;28;20476;-66
2022/08/10 00:45:54;;;;;;;;;;;21.20;64.80;;;;;;5021575;28;19921;-66
2022/08/10 00:48:20;;;;;;;;;;;21.20;65.00;;;;;;5036175;28;19941;-66
2022/08/10 00:50:46;;;;;;;;;;;21.20;64.80;;;;;;5003221;28;19965;-65
2022/08/10 00:53:11;;;;;;;;;;;21.20;64.90;;;;;;5003533;28;19953;-66
2022/08/10 00:55:37;;;;;;;;;;;21.10;65.00;;;;;;5021539;28;19913;-66
2022/08/10 00:58:02;;;;;;;;;;;21.10;65.10;;;;;;5027755;28;19924;-66
2022/08/10 01:00:28;;;;;;;;;;;21.10;65.20;;;;;;5043339;28;19913;-66
2022/08/10 01:02:54;;;;;;;;;;;21.00;65.20;;;;;;5025684;28;19912;-66
2022/08/10 01:05:20;;;;;;;;;;;21.00;65.20;;;;;;5041487;28;20372;-66
2022/08/10 01:07:51;;;;;;;;;;;21.00;65.30;;;;;;5043046;28;20016;-66
2022/08/10 01:10:22;;;;;;;;;;;21.00;65.50;;;;;;5043307;28;20272;-65
2022/08/10 01:13:00;;;;;;;;;;;20.90;65.50;;;;;;5042863;28;20587;-66
2022/08/10 01:15:28;;;;;;;;;;;20.90;65.70;;;;;;5030299;28;19920;-66
2022/08/10 01:17:56;;;;;;;;;;;20.90;65.70;;;;;;5024641;28;20008;-66
2022/08/10 01:20:34;;;;;;;;;;;20.90;65.70;;;;;;5024932;28;19977;-66
2022/08/10 01:23:03;;;;;;;;;;;20.80;65.70;;;;;;5024593;28;19913;-66
2022/08/10 01:25:37;;;;;;;;;;;20.80;65.90;;;;;;5024804;28;19913;-65
2022/08/10 01:28:21;;;;;;;;;;;20.80;66.00;;;;;;5032448;28;19921;-66
2022/08/10 01:30:50;;;;;;;;;;;20.70;66.00;;;;;;5030794;28;19966;-66
2022/08/10 01:33:25;;;;;;;;;;;20.70;66.10;;;;;;5031333;28;19912;-66
2022/08/10 01:35:52;;;;;;;;;;;20.70;66.20;;;;;;5042693;28;19976;-66
2022/08/10 01:38:23;;;;;;;;;;;20.70;66.40;;;;;;5024851;28;19970;-66
2022/08/10 01:40:51;;;;;;;;;;;20.60;66.40;;;;;;5042924;28;19916;-66
2022/08/10 01:43:18;;;;;;;;;;;20.60;66.30;;;;;;5042818;28;20369;-66
2022/08/10 01:45:44;;;;;;;;;;;20.60;66.50;;;;;;5039139;28;19921;-66
2022/08/10 01:48:27;;;;;;;;;;;20.60;66.50;;;;;;5042316;28;19917;-66
2022/08/10 01:50:55;;;;;;;;;;;20.60;66.60;;;;;;5042754;28;19913;-66
2022/08/10 01:53:22;;;;;;;;;;;20.50;66.70;;;;;;5029466;28;19970;-65
2022/08/10 01:55:49;;;;;;;;;;;20.50;66.80;;;;;;5024755;28;19913;-65
2022/08/10 01:58:16;;;;;;;;;;;20.50;66.80;;;;;;5006249;28;19909;-66
2022/08/10 02:00:44;;;;;;;;;;;20.50;66.90;;;;;;5023449;28;20316;-66
2022/08/10 02:03:11;;;;;;;;;;;20.50;67.00;;;;;;5024537;28;19913;-66
2022/08/10 02:05:37;;;;;;;;;;;20.40;66.80;;;;;;5012383;28;19981;-66
2022/08/10 02:08:04;;;;;;;;;;;20.40;67.00;;;;;;5041490;28;19917;-66
2022/08/10 02:10:31;;;;;;;;;;;20.40;67.20;;;;;;5042503;28;19913;-66
2022/08/10 02:12:57;;;;;;;;;;;20.40;67.30;;;;;;5021141;28;20552;-65
2022/08/10 02:15:24;;;;;;;;;;;20.40;67.30;;;;;;5026745;28;19948;-66
2022/08/10 02:17:58;;;;;;;;;;;20.30;67.10;;;;;;5039121;28;19978;-66
2022/08/10 02:20:24;;;;;;;;;;;20.30;67.20;;;;;;5022052;28;19913;-66
2022/08/10 02:23:01;;;;;;;;;;;20.30;67.30;;;;;;5024084;28;19916;-65
2022/08/10 02:25:27;;;;;;;;;;;20.30;67.40;;;;;;5023754;28;19948;-66
2022/08/10 02:27:53;;;;;;;;;;;20.30;67.40;;;;;;5023591;28;19948;-66
2022/08/10 02:30:19;;;;;;;;;;;20.20;67.60;;;;;;5023921;28;20318;-65
2022/08/10 02:32:45;;;;;;;;;;;20.20;67.50;;;;;;5023183;28;19965;-65
2022/08/10 02:35:12;;;;;;;;;;;20.20;67.60;;;;;;5027262;28;20007;-66
2022/08/10 02:37:39;;;;;;;;;;;20.20;67.70;;;;;;5041886;28;20408;-66
2022/08/10 02:40:05;;;;;;;;;;;20.10;67.60;;;;;;5032210;28;20017;-66
2022/08/10 02:42:49;;;;;;;;;;;20.10;67.70;;;;;;5023718;28;19913;-66
2022/08/10 02:45:41;;;;;;;;;;;20.10;67.80;;;;;;5023430;28;20007;-66
2022/08/10 02:48:33;;;;;;;;;;;20.10;67.90;;;;;;5003681;28;19933;-66
2022/08/10 02:51:04;;;;;;;;;;;20.10;67.90;;;;;;5006875;28;19964;-66
2022/08/10 02:53:47;;;;;;;;;;;20.00;68.10;;;;;;5023759;28;20408;-66
2022/08/10 02:56:25;;;;;;;;;;;20.00;67.90;;;;;;5022550;28;19966;-66
2022/08/10 02:59:02;;;;;;;;;;;20.00;68.10;;;;;;5023080;28;20383;-66
2022/08/10 03:01:33;;;;;;;;;;;20.00;68.00;;;;;;5020898;28;19921;-65
2022/08/10 03:04:01;;;;;;;;;;;20.00;68.10;;;;;;5039083;28;19963;-65
2022/08/10 03:06:31;;;;;;;;;;;19.90;68.20;;;;;;5038185;28;20389;-66
2022/08/10 03:08:57;;;;;;;;;;;19.90;68.30;;;;;;5013399;28;19951;-66
2022/08/10 03:11:24;;;;;;;;;;;19.90;68.30;;;;;;5022723;28;20558;-66
2022/08/10 03:13:51;;;;;;;;;;;19.90;68.50;;;;;;5032594;28;19943;-66
2022/08/10 03:16:17;;;;;;;;;;;19.90;68.50;;;;;;5024165;28;19917;-66
2022/08/10 03:18:44;;;;;;;;;;;19.90;68.40;;;;;;5021685;28;20575;-66
2022/08/10 03:21:11;;;;;;;;;;;19.90;68.60;;;;;;5022610;28;19917;-66
2022/08/10 03:23:36;;;;;;;;;;;19.80;68.60;;;;;;5022899;28;19913;-66
2022/08/10 03:26:02;;;;;;;;;;;19.80;68.50;;;;;;5022714;28;20456;-65
2022/08/10 03:28:28;;;;;;;;;;;19.80;68.60;;;;;;5023447;28;20288;-66
2022/08/10 03:30:54;;;;;;;;;;;19.80;68.70;;;;;;5004738;28;20249;-66
2022/08/10 03:33:21;;;;;;;;;;;19.80;68.60;;;;;;5022411;28;19919;-66
2022/08/10 03:35:47;;;;;;;;;;;19.70;68.80;;;;;;5022229;28;19913;-66
2022/08/10 03:38:12;;;;;;;;;;;19.70;68.80;;;;;;5022323;28;19913;-66
2022/08/10 03:40:39;;;;;;;;;;;19.70;68.90;;;;;;5021845;28;19913;-66
2022/08/10 03:43:05;;;;;;;;;;;19.70;69.00;;;;;;5017249;28;19961;-66
2022/08/10 03:45:31;;;;;;;;;;;19.70;69.00;;;;;;5023518;28;20273;-66
2022/08/10 03:47:57;;;;;;;;;;;19.70;68.80;;;;;;5016459;28;20266;-66
2022/08/10 03:50:23;;;;;;;;;;;19.60;69.00;;;;;;5016935;28;19917;-65
2022/08/10 03:52:49;;;;;;;;;;;19.60;69.20;;;;;;5022375;28;20712;-66
2022/08/10 03:55:15;;;;;;;;;;;19.60;69.10;;;;;;5022392;28;20011;-66
2022/08/10 03:57:40;;;;;;;;;;;19.60;69.30;;;;;;5021854;28;19917;-66
2022/08/10 04:00:08;;;;;;;;;;;19.60;69.20;;;;;;5021742;28;20066;-66
2022/08/10 04:02:34;;;;;;;;;;;19.60;69.20;;;;;;5022238;28;19940;-66
2022/08/10 04:04:59;;;;;;;;;;;19.60;69.20;;;;;;5022132;28;19917;-66
2022/08/10 04:07:25;;;;;;;;;;;19.60;69.40;;;;;;5039260;28;20020;-66
2022/08/10 04:09:52;;;;;;;;;;;19.50;69.30;;;;;;5040395;27;19916;-65
2022/08/10 04:12:18;;;;;;;;;;;19.50;69.60;;;;;;5040279;28;19916;-66
2022/08/10 04:14:43;;;;;;;;;;;19.50;69.50;;;;;;5034707;28;20324;-66
2022/08/10 04:17:09;;;;;;;;;;;19.50;69.60;;;;;;5007850;28;20656;-66
2022/08/10 04:19:45;;;;;;;;;;;19.50;69.40;;;;;;5040375;28;19958;-66
2022/08/10 04:22:16;;;;;;;;;;;19.40;69.60;;;;;;5035632;28;19913;-66
2022/08/10 04:24:43;;;;;;;;;;;19.40;69.50;;;;;;5022145;28;20357;-66
2022/08/10 04:27:09;;;;;;;;;;;19.40;69.50;;;;;;5021334;28;19928;-66
2022/08/10 04:29:35;;;;;;;;;;;19.40;69.40;;;;;;5021824;28;19924;-66
2022/08/10 04:32:02;;;;;;;;;;;19.40;69.50;;;;;;5021888;28;19913;-66
2022/08/10 04:34:30;;;;;;;;;;;19.40;69.50;;;;;;5026024;28;19916;-66
2022/08/10 04:36:57;;;;;;;;;;;19.40;69.40;;;;;;5040304;28;19970;-65
2022/08/10 04:39:23;;;;;;;;;;;19.40;69.70;;;;;;5040540;28;19913;-65
2022/08/10 04:41:48;;;;;;;;;;;19.40;69.50;;;;;;5025340;28;19913;-66
2022/08/10 04:44:14;;;;;;;;;;;19.40;69.30;;;;;;5021494;28;19913;-66
2022/08/10 04:46:40;;;;;;;;;;;19.30;69.50;;;;;;5021274;28;19917;-66
2022/08/10 04:49:05;;;;;;;;;;;19.40;69.60;;;;;;5003845;28;19923;-65
2022/08/10 04:51:31;;;;;;;;;;;19.40;69.80;;;;;;5021260;28;19917;-66
2022/08/10 04:53:56;;;;;;;;;;;19.30;69.70;;;;;;5021335;28;19917;-66
2022/08/10 04:56:22;;;;;;;;;;;19.30;69.70;;;;;;5021215;28;19938;-66
2022/08/10 04:58:47;;;;;;;;;;;19.30;69.80;;;;;;5021578;28;19966;-66
2022/08/10 05:01:14;;;;;;;;;;;19.30;69.80;;;;;;5021596;28;20412;-66
2022/08/10 05:03:39;;;;;;;;;;;19.30;69.50;;;;;;5021428;28;19927;-66
2022/08/10 05:06:05;;;;;;;;;;;19.30;69.80;;;;;;5041606;28;19925;-66
2022/08/10 05:08:30;;;;;;;;;;;19.30;69.90;;;;;;5028000;28;20630;-66
2022/08/10 05:10:56;;;;;;;;;;;19.30;69.80;;;;;;5031901;28;19913;-66
2022/08/10 05:13:21;;;;;;;;;;;19.30;69.70;;;;;;5039528;28;20010;-65
2022/08/10 05:15:49;;;;;;;;;;;19.30;70.00;;;;;;5026305;28;19913;-66
2022/08/10 05:18:14;;;;;;;;;;;19.30;69.90;;;;;;5020993;28;19929;-66
2022/08/10 05:20:40;;;;;;;;;;;19.30;69.80;;;;;;5021481;28;19913;-66
2022/08/10 05:23:06;;;;;;;;;;;19.30;69.80;;;;;;5021239;28;20373;-66
2022/08/10 05:25:31;;;;;;;;;;;19.30;70.10;;;;;;5026835;28;19916;-66
2022/08/10 05:27:57;;;;;;;;;;;19.30;70.30;;;;;;5019403;28;19970;-66
2022/08/10 05:30:22;;;;;;;;;;;19.30;70.00;;;;;;5021336;28;19921;-66
2022/08/10 05:32:48;;;;;;;;;;;19.30;70.00;;;;;;5021409;28;20487;-66
2022/08/10 05:35:14;;;;;;;;;;;19.30;70.00;;;;;;5021252;28;19913;-66
2022/08/10 05:37:40;;;;;;;;;;;19.30;69.80;;;;;;5020691;28;19997;-66
2022/08/10 05:40:06;;;;;;;;;;;19.30;70.10;;;;;;5020879;28;19969;-66
2022/08/10 05:42:31;;;;;;;;;;;19.30;70.10;;;;;;5033528;28;20269;-66
2022/08/10 05:44:57;;;;;;;;;;;19.30;69.90;;;;;;5033983;28;19952;-66
2022/08/10 05:47:23;;;;;;;;;;;19.30;69.90;;;;;;5024314;28;19917;-66
2022/08/10 05:49:49;;;;;;;;;;;19.30;69.60;;;;;;5024604;28;20548;-66
2022/08/10 05:52:15;;;;;;;;;;;19.20;69.50;;;;;;5024652;28;19932;-66
2022/08/10 05:54:41;;;;;;;;;;;19.20;69.50;;;;;;5024291;28;20337;-66
2022/08/10 05:57:07;;;;;;;;;;;19.20;69.50;;;;;;5024150;28;19916;-66
2022/08/10 05:59:33;;;;;;;;;;;19.20;69.40;;;;;;5031770;28;19916;-66
2022/08/10 06:02:01;;;;;;;;;;;19.30;69.50;;;;;;5042726;28;19923;-65
2022/08/10 06:04:34;;;;;;;;;;;19.30;69.50;;;;;;5042449;28;20536;-66
2022/08/10 06:07:00;;;;;;;;;;;19.20;69.30;;;;;;5040779;28;19921;-66
2022/08/10 06:09:26;;;;;;;;;;;19.30;69.40;;;;;;5024258;28;19912;-66
2022/08/10 06:11:52;;;;;;;;;;;19.30;69.30;;;;;;5042441;28;20425;-66
2022/08/10 06:17:02;;;;;;;;;;;19.30;69.40;;;;;;5036452;28;19924;-66
2022/08/10 06:19:28;;;;;;;;;;;19.30;69.20;;;;;;5041543;28;19912;-66
2022/08/10 06:21:56;;;;;;;;;;;19.30;69.30;;;;;;5040053;28;19913;-66
2022/08/10 06:24:23;;;;;;;;;;;19.30;69.20;;;;;;5006649;28;19913;-66
2022/08/10 06:26:48;;;;;;;;;;;19.30;69.20;;;;;;5023805;28;20396;-66
2022/08/10 06:29:14;;;;;;;;;;;19.40;69.20;;;;;;5023963;28;19920;-66
2022/08/10 06:31:42;;;;;;;;;;;19.40;69.20;;;;;;5024336;28;19953;-66
2022/08/10 06:34:09;;;;;;;;;;;19.40;69.20;;;;;;5040594;28;19924;-66
2022/08/10 06:36:35;;;;;;;;;;;19.40;69.20;;;;;;5042140;28;19913;-66
2022/08/10 06:39:00;;;;;;;;;;;19.40;69.10;;;;;;5042354;28;19913;-66
2022/08/10 06:41:27;;;;;;;;;;;19.40;69.10;;;;;;5042006;28;19999;-66
2022/08/10 06:43:57;;;;;;;;;;;19.40;69.10;;;;;;5042161;28;20056;-66
2022/08/10 06:46:25;;;;;;;;;;;19.40;69.10;;;;;;5023350;28;20493;-66
2022/08/10 06:48:53;;;;;;;;;;;19.40;69.00;;;;;;5023714;28;20629;-66
2022/08/10 06:51:34;;;;;;;;;;;19.40;69.00;;;;;;5023821;28;19953;-66
2022/08/10 06:54:01;;;;;;;;;;;19.40;68.90;;;;;;5022147;28;20002;-66
2022/08/10 06:56:28;;;;;;;;;;;19.50;69.00;;;;;;5023589;28;19913;-66
2022/08/10 06:58:57;;;;;;;;;;;19.50;68.90;;;;;;5027327;28;19920;-66
2022/08/10 07:01:24;;;;;;;;;;;19.50;68.80;;;;;;5023885;28;19913;-65
2022/08/10 07:04:05;;;;;;;;;;;19.50;68.80;;;;;;5024123;28;19927;-66
2022/08/10 07:06:32;;;;;;;;;;;19.50;68.60;;;;;;5023572;28;19917;-66
2022/08/10 07:09:00;;;;;;;;;;;19.60;68.70;;;;;;5023434;28;20024;-66
2022/08/10 07:11:27;;;;;;;;;;;19.50;68.60;;;;;;5023597;28;20442;-65
2022/08/10 07:13:55;;;;;;;;;;;19.60;68.60;;;;;;5022760;28;19913;-66
2022/08/10 07:16:22;;;;;;;;;;;19.60;68.50;;;;;;5023245;28;20404;-66
2022/08/10 07:18:48;;;;;;;;;;;19.60;68.40;;;;;;5023303;28;20004;-66
2022/08/10 07:21:13;;;;;;;;;;;19.60;68.40;;;;;;5023148;28;20011;-66
2022/08/10 07:23:43;;;;;;;;;;;19.60;68.30;;;;;;5032366;28;19928;-66
2022/08/10 07:26:08;;;;;;;;;;;19.60;68.30;;;;;;5041081;28;19912;-66
2022/08/10 07:28:34;;;;;;;;;;;19.60;68.30;;;;;;5033748;28;20325;-66
2022/08/10 07:31:00;;;;;;;;;;;19.70;68.20;;;;;;5023070;28;19928;-66
2022/08/10 07:33:27;;;;;;;;;;;19.70;68.20;;;;;;5023258;28;19913;-66
2022/08/10 07:35:54;;;;;;;;;;;19.70;68.00;;;;;;5022639;28;19963;-66
2022/08/10 07:38:24;;;;;;;;;;;19.70;67.90;;;;;;5022421;28;20009;-66
2022/08/10 07:40:50;;;;;;;;;;;19.70;67.90;;;;;;5021722;28;19925;-66
2022/08/10 07:43:17;;;;;;;;;;;19.80;67.80;;;;;;5022380;28;19913;-66
2022/08/10 07:45:43;;;;;;;;;;;19.80;67.90;;;;;;5022212;28;19921;-66
2022/08/10 07:48:12;;;;;;;;;;;19.80;67.70;;;;;;5022023;28;19974;-66
2022/08/10 07:50:38;;;;;;;;;;;19.80;67.70;;;;;;5022757;28;20012;-66
2022/08/10 07:53:06;;;;;;;;;;;19.90;67.70;;;;;;5022496;28;20005;-66
2022/08/10 07:55:33;;;;;;;;;;;19.90;67.60;;;;;;5022577;28;19913;-66
2022/08/10 07:58:00;;;;;;;;;;;19.90;67.40;;;;;;5021713;28;19917;-66
2022/08/10 08:00:27;;;;;;;;;;;19.90;67.30;;;;;;5022290;28;19930;-66
2022/08/10 08:02:54;;;;;;;;;;;19.90;67.30;;;;;;5004641;28;19958;-66
2022/08/10 08:05:21;;;;;;;;;;;20.00;67.30;;;;;;5023445;28;19913;-66
2022/08/10 08:07:47;;;;;;;;;;;20.00;67.20;;;;;;5041183;28;19917;-66
2022/08/10 08:10:15;;;;;;;;;;;20.00;67.10;;;;;;5041116;28;19913;-66
2022/08/10 08:12:41;;;;;;;;;;;20.10;67.00;;;;;;5021299;28;20020;-66
2022/08/10 08:15:08;;;;;;;;;;;20.10;66.90;;;;;;5027194;28;20022;-66
2022/08/10 08:17:34;;;;;;;;;;;20.10;66.90;;;;;;5021996;28;20033;-66
2022/08/10 08:19:59;;;;;;;;;;;20.10;66.90;;;;;;5022050;28;20386;-66
2022/08/10 08:22:26;;;;;;;;;;;20.20;66.80;;;;;;5022066;28;20076;-66
2022/08/10 08:24:53;;;;;;;;;;;20.20;66.80;;;;;;5021959;28;19940;-66
2022/08/10 08:27:19;;;;;;;;;;;20.20;66.70;;;;;;5015313;28;19921;-65
2022/08/10 08:29:46;;;;;;;;;;;20.20;66.60;;;;;;5023256;28;19913;-66
2022/08/10 08:32:13;;;;;;;;;;;20.30;66.60;;;;;;5021927;28;19909;-66
2022/08/10 08:34:40;;;;;;;;;;;20.30;66.50;;;;;;5022159;28;19917;-66
2022/08/10 08:37:07;;;;;;;;;;;20.30;66.40;;;;;;5021701;28;19920;-66
2022/08/10 08:39:33;;;;;;;;;;;20.40;66.30;;;;;;5022024;28;19920;-66
2022/08/10 08:42:16;;;;;;;;;;;20.40;66.30;;;;;;5021867;28;19928;-66
2022/08/10 08:44:51;;;;;;;;;;;20.40;66.20;;;;;;5021624;28;19962;-65
2022/08/10 08:47:35;;;;;;;;;;;20.40;66.10;;;;;;5021073;28;20438;-65
2022/08/10 08:50:21;;;;;;;;;;;20.40;66.00;;;;;;5021417;28;19913;-66
2022/08/10 08:52:58;;;;;;;;;;;20.50;65.90;;;;;;5010403;28;19913;-65
2022/08/10 08:55:23;;;;;;;;;;;20.60;65.90;;;;;;5016438;28;20031;-66
2022/08/10 08:58:07;;;;;;;;;;;20.60;65.90;;;;;;5021591;28;20040;-66
2022/08/10 09:00:38;;;;;;;;;;;20.60;65.70;;;;;;5021957;28;20568;-66
2022/08/10 09:03:04;;;;;;;;;;;20.70;65.60;;;;;;5021766;28;19957;-66
2022/08/10 09:05:29;;;;;;;;;;;20.70;65.50;;;;;;5023418;28;20020;-66
2022/08/10 09:08:01;;;;;;;;;;;20.70;65.70;;;;;;5039798;28;20591;-65
2022/08/10 09:10:44;;;;;;;;;;;20.80;65.40;;;;;;5040256;28;19913;-66
2022/08/10 09:13:15;;;;;;;;;;;20.80;65.30;;;;;;5040430;28;19917;-66
2022/08/10 09:15:47;;;;;;;;;;;20.90;65.20;;;;;;5026888;28;19913;-65
2022/08/10 09:18:20;;;;;;;;;;;20.90;65.20;;;;;;5024337;28;19999;-66
2022/08/10 09:20:52;;;;;;;;;;;21.00;65.10;;;;;;5024701;28;20088;-65
2022/08/10 09:23:37;;;;;;;;;;;21.00;65.00;;;;;;5019275;28;19924;-66
2022/08/10 09:26:21;;;;;;;;;;;21.00;64.90;;;;;;5024754;28;19955;-66
2022/08/10 09:28:50;;;;;;;;;;;21.10;64.80;;;;;;5024467;28;20728;-66
2022/08/10 09:31:19;;;;;;;;;;;21.20;65.00;;;;;;5024735;28;19913;-66
2022/08/10 09:34:03;;;;;;;;;;;21.10;64.70;;;;;;5024587;28;20357;-65
2022/08/10 09:36:44;;;;;;;;;;;21.20;64.70;;;;;;5024565;28;19920;-66
2022/08/10 09:39:17;;;;;;;;;;;21.30;64.40;;;;;;5024561;28;20027;-66
2022/08/10 09:42:04;;;;;;;;;;;21.30;64.50;;;;;;5006700;28;20535;-66
2022/08/10 09:44:33;;;;;;;;;;;21.40;64.50;;;;;;5024460;28;19923;-66
2022/08/10 09:47:18;;;;;;;;;;;21.50;64.40;;;;;;5024031;28;20592;-66
2022/08/10 09:49:43;;;;;;;;;;;21.50;64.10;;;;;;5015197;28;19917;-66
2022/08/10 09:52:15;;;;;;;;;;;21.60;64.30;;;;;;5023970;28;20445;-66
2022/08/10 09:54:58;;;;;;;;;;;21.70;64.10;;;;;;5024056;28;19917;-66
2022/08/10 09:57:30;;;;;;;;;;;21.70;63.80;;;;;;5023858;28;19913;-66
2022/08/10 10:00:00;;;;;;;;;;;21.80;63.70;;;;;;5024195;28;20543;-66
2022/08/10 10:02:31;;;;;;;;;;;21.90;63.50;;;;;;5024304;28;19920;-66
2022/08/10 10:05:07;;;;;;;;;;;21.90;63.50;;;;;;5024473;28;19916;-65
2022/08/10 10:07:37;;;;;;;;;;;22.00;63.30;;;;;;5043104;28;20639;-66
2022/08/10 10:10:05;;;;;;;;;;;22.00;63.20;;;;;;5022646;28;20466;-66
2022/08/10 10:12:37;;;;;;;;;;;22.10;63.00;;;;;;5043436;28;19920;-66
2022/08/10 10:15:20;;;;;;;;;;;22.20;63.10;;;;;;5035435;28;20000;-65
2022/08/10 10:18:01;;;;;;;;;;;22.20;63.00;;;;;;5023926;28;19913;-66
2022/08/10 10:20:32;;;;;;;;;;;22.30;62.90;;;;;;5024263;28;19910;-66
2022/08/10 10:23:04;;;;;;;;;;;22.30;62.80;;;;;;5024091;28;20408;-66
2022/08/10 10:25:32;;;;;;;;;;;22.40;62.60;;;;;;5024487;28;20394;-66
2022/08/10 10:27:58;;;;;;;;;;;22.50;62.50;;;;;;5023628;28;20638;-66
2022/08/10 10:30:24;;;;;;;;;;;22.50;62.50;;;;;;5024451;28;19913;-66
2022/08/10 10:32:57;;;;;;;;;;;22.60;62.70;;;;;;5023864;28;19924;-66
2022/08/10 10:35:31;;;;;;;;;;;22.70;62.60;;;;;;5023887;28;19916;-66
2022/08/10 10:37:57;;;;;;;;;;;22.80;62.70;;;;;;5023582;28;20264;-66
2022/08/10 10:40:24;;;;;;;;;;;22.90;62.80;;;;;;5023713;28;19948;-66
2022/08/10 10:42:59;;;;;;;;;;;22.90;63.20;;;;;;5023678;28;19963;-66
2022/08/10 10:45:30;;;;;;;;;;;23.00;62.90;;;;;;5022980;28;20439;-66
2022/08/10 10:48:15;;;;;;;;;;;23.10;63.00;;;;;;5017063;28;19921;-66
2022/08/10 10:50:57;;;;;;;;;;;23.20;63.00;;;;;;5023887;28;19913;-66
2022/08/10 10:53:34;;;;;;;;;;;23.30;63.50;;;;;;5023779;28;19921;-66
2022/08/10 10:55:59;;;;;;;;;;;23.50;63.60;;;;;;5022999;28;19913;-66
2022/08/10 10:58:32;;;;;;;;;;;23.60;63.40;;;;;;5023421;28;19940;-66
2022/08/10 11:00:58;;;;;;;;;;;23.70;63.60;;;;;;5023533;28;19913;-66
2022/08/10 11:03:23;;;;;;;;;;;23.80;63.50;;;;;;5023795;28;19939;-66
2022/08/10 11:05:59;;;;;;;;;;;23.90;62.70;;;;;;5028932;28;19913;-66
2022/08/10 11:08:27;;;;;;;;;;;24.00;63.40;;;;;;5042564;28;20373;-65
2022/08/10 11:10:53;;;;;;;;;;;24.10;63.50;;;;;;5042886;28;19944;-65
2022/08/10 11:13:24;;;;;;;;;;;24.20;63.20;;;;;;5042596;28;19913;-65
2022/08/10 11:16:11;;;;;;;;;;;24.30;63.20;;;;;;5034049;28;19917;-65
2022/08/10 11:18:58;;;;;;;;;;;24.50;62.70;;;;;;5041955;28;19916;-65
2022/08/10 11:21:23;;;;;;;;;;;24.60;63.20;;;;;;5042141;28;19950;-65
2022/08/10 11:24:09;;;;;;;;;;;24.80;63.30;;;;;;5024791;28;19920;-65
2022/08/10 11:26:46;;;;;;;;;;;24.90;63.20;;;;;;4998734;28;20053;-65
2022/08/10 11:29:12;;;;;;;;;;;25.00;63.30;;;;;;5022926;28;20019;-65
2022/08/10 11:31:42;;;;;;;;;;;25.20;63.40;;;;;;5036782;28;20066;-65
2022/08/10 11:34:33;;;;;;;;;;;25.30;63.10;;;;;;5042306;28;20293;-65
2022/08/10 11:37:08;;;;;;;;;;;25.40;63.00;;;;;;5039573;28;19924;-65
2022/08/10 11:39:38;;;;;;;;;;;25.50;62.80;;;;;;5041105;28;19920;-65
2022/08/10 11:42:14;;;;;;;;;;;25.70;62.90;;;;;;5042054;28;20625;-65
2022/08/10 11:44:49;;;;;;;;;;;25.80;63.20;;;;;;5036221;28;20735;-65
2022/08/10 11:47:21;;;;;;;;;;;25.80;63.20;;;;;;5029759;28;20015;-65
2022/08/10 11:50:00;;;;;;;;;;;25.90;63.10;;;;;;5041527;28;19920;-65
2022/08/10 11:52:32;;;;;;;;;;;26.00;62.80;;;;;;5035440;28;20370;-65
2022/08/10 11:54:59;;;;;;;;;;;26.10;62.80;;;;;;5022752;28;19913;-65
2022/08/10 11:57:28;;;;;;;;;;;26.20;62.70;;;;;;5022696;28;19913;-65
2022/08/10 11:59:56;;;;;;;;;;;26.30;62.90;;;;;;5022571;28;19920;-65
2022/08/10 12:02:27;;;;;;;;;;;26.40;62.80;;;;;;5021869;28;19914;-65
2022/08/10 12:05:01;;;;;;;;;;;26.40;62.70;;;;;;5037920;28;20623;-65
2022/08/10 12:07:28;;;;;;;;;;;26.50;62.80;;;;;;5021686;28;19924;-65
2022/08/10 12:09:55;;;;;;;;;;;26.60;62.60;;;;;;5041003;28;20493;-65
2022/08/10 12:12:21;;;;;;;;;;;26.60;62.50;;;;;;5040930;28;19913;-65
2022/08/10 12:14:52;;;;;;;;;;;26.70;62.00;;;;;;5034574;28;20369;-65
2022/08/10 12:17:21;;;;;;;;;;;26.80;62.70;;;;;;5021835;28;19918;-65
2022/08/10 12:19:52;;;;;;;;;;;26.90;62.70;;;;;;5022000;28;19937;-65
2022/08/10 12:22:20;;;;;;;;;;;27.00;62.90;;;;;;5021696;28;19991;-65
2022/08/10 12:24:47;;;;;;;;;;;27.00;62.80;;;;;;5021938;28;19941;-65
2022/08/10 12:27:12;;;;;;;;;;;27.10;62.70;;;;;;5021567;28;19964;-65
2022/08/10 12:29:46;;;;;;;;;;;27.10;62.80;;;;;;5022059;28;20253;-65
2022/08/10 12:32:16;;;;;;;;;;;27.20;62.60;;;;;;5040963;28;19969;-65
2022/08/10 12:34:43;;;;;;;;;;;27.30;62.80;;;;;;5041513;28;20429;-65
2022/08/10 12:37:27;;;;;;;;;;;27.40;62.60;;;;;;5041186;28;19917;-65
2022/08/10 12:40:02;;;;;;;;;;;27.40;62.70;;;;;;5041207;28;19920;-65
2022/08/10 12:42:32;;;;;;;;;;;27.50;62.70;;;;;;5040351;28;19993;-65
2022/08/10 12:45:01;;;;;;;;;;;27.50;62.40;;;;;;5027808;28;19921;-65
2022/08/10 12:47:39;;;;;;;;;;;27.60;62.40;;;;;;5019469;28;20019;-65
2022/08/10 12:50:33;;;;;;;;;;;27.60;62.40;;;;;;5021266;28;19913;-65
2022/08/10 12:53:10;;;;;;;;;;;27.70;62.40;;;;;;4987912;28;19952;-65
2022/08/10 12:55:36;;;;;;;;;;;27.80;62.40;;;;;;5031946;28;19920;-65
2022/08/10 12:58:03;;;;;;;;;;;27.80;61.80;;;;;;5024406;28;19913;-65
2022/08/10 13:00:30;;;;;;;;;;;27.90;62.40;;;;;;5024763;28;19913;-65
2022/08/10 13:02:58;;;;;;;;;;;28.00;62.40;;;;;;5024422;28;19982;-65
2022/08/10 13:05:24;;;;;;;;;;;28.00;62.20;;;;;;5026117;28;20556;-65
2022/08/10 13:09:07;;;;;;;;;;;28.10;62.20;;;;;;5035901;28;19920;-65
2022/08/10 13:10:42;;;;;;;;;;;28.20;62.40;;;;;;5024082;28;19913;-65
2022/08/10 13:13:08;;;;;;;;;;;28.20;62.10;;;;;;5024117;28;19910;-65
2022/08/10 13:15:35;;;;;;;;;;;28.30;62.20;;;;;;5031940;27;19998;-65
2022/08/10 13:18:02;;;;;;;;;;;28.30;62.10;;;;;;5021065;28;19942;-65
2022/08/10 13:20:27;;;;;;;;;;;28.40;62.00;;;;;;5024203;28;19924;-65
2022/08/10 13:22:55;;;;;;;;;;;28.50;62.00;;;;;;5023986;28;19918;-65
2022/08/10 13:25:24;;;;;;;;;;;28.50;62.00;;;;;;5024462;28;19955;-65
2022/08/10 13:27:51;;;;;;;;;;;28.60;61.70;;;;;;5026293;27;19952;-65
2022/08/10 13:30:18;;;;;;;;;;;28.60;61.50;;;;;;5030842;28;20358;-65
2022/08/10 13:32:49;;;;;;;;;;;28.70;61.80;;;;;;5023893;28;19913;-65
2022/08/10 13:35:17;;;;;;;;;;;28.70;61.80;;;;;;5023421;28;19924;-65
2022/08/10 13:37:43;;;;;;;;;;;28.80;60.90;;;;;;5023437;28;19913;-65
2022/08/10 13:40:11;;;;;;;;;;;28.80;60.10;;;;;;5023590;28;20012;-65
2022/08/10 13:42:37;;;;;;;;;;;28.90;61.30;;;;;;5023738;28;19939;-65
2022/08/10 13:45:10;;;;;;;;;;;28.90;61.50;;;;;;5023135;28;19925;-67
2022/08/10 13:47:36;;;;;;;;;;;29.00;61.60;;;;;;5023122;28;19917;-67
2022/08/10 13:50:02;;;;;;;;;;;29.00;61.30;;;;;;5023223;28;19913;-66
2022/08/10 13:52:27;;;;;;;;;;;29.00;61.60;;;;;;5023202;28;19917;-66
2022/08/10 13:54:55;;;;;;;;;;;29.00;61.60;;;;;;5023506;28;19913;-66
2022/08/10 13:57:24;;;;;;;;;;;29.00;61.30;;;;;;5022828;28;19913;-66
2022/08/10 13:59:53;;;;;;;;;;;29.10;59.90;;;;;;5022769;28;19921;-66
2022/08/10 14:02:27;;;;;;;;;;;29.20;61.00;;;;;;5030921;28;19923;-65
2022/08/10 14:04:54;;;;;;;;;;;29.20;61.10;;;;;;5024213;28;19944;-64
2022/08/10 14:07:20;;;;;;;;;;;29.30;61.10;;;;;;5040362;28;20535;-65
2022/08/10 14:09:46;;;;;;;;;;;29.30;59.60;;;;;;5024183;28;20007;-65
2022/08/10 14:12:12;;;;;;;;;;;29.40;59.70;;;;;;5022906;28;20051;-65
2022/08/10 14:14:41;;;;;;;;;;;29.40;60.30;;;;;;5022368;28;19917;-65
2022/08/10 14:17:07;;;;;;;;;;;29.40;60.40;;;;;;5022348;28;19937;-66
2022/08/10 14:19:36;;;;;;;;;;;29.40;60.00;;;;;;5022810;28;19913;-65
2022/08/10 14:22:01;;;;;;;;;;;29.50;60.00;;;;;;5022497;28;19913;-66
2022/08/10 14:24:28;;;;;;;;;;;29.50;59.20;;;;;;5022613;28;19924;-66
2022/08/10 14:27:14;;;;;;;;;;;29.60;59.10;;;;;;5021987;28;20545;-65
2022/08/10 14:29:46;;;;;;;;;;;29.70;59.80;;;;;;5022382;28;19914;-66